TimeCET,TemperatureF,Dew PointF,Humidity,Sea Level PressureIn,VisibilityMPH,Wind Direction,Wind SpeedMPH,Gust SpeedMPH,PrecipitationIn,Events,Conditions,WindDirDegrees,DateUTC
12:00 AM,15,15,100,,0,SSW,17.3,,,Snow,Light Snow,200,2013-12-19 23:00:00
12:55 AM,15.8,15.8,100,29.92,0.1,SSW,10.4,23.0,N/A,Fog-Snow,Light Snow,200,2013-12-19 23:55:00
1:00 AM,15,15,100,,0,SSW,10.4,,,Snow,Light Snow,200,2013-12-20 00:00:00
1:55 AM,14.0,14.0,100,29.92,0.1,SSW,17.3,32.2,N/A,Fog-Snow,Light Snow,210,2013-12-20 00:55:00
2:00 AM,15,15,98,,0,SSW,17.3,,,Snow,Light Snow,210,2013-12-20 01:00:00
2:55 AM,14.0,14.0,100,29.95,0.1,SSW,15.0,33.4,N/A,Fog-Snow,Light Snow,210,2013-12-20 01:55:00
3:00 AM,14,14,100,,0,SSW,15.0,,,Snow,Light Snow,210,2013-12-20 02:00:00
3:55 AM,14.0,14.0,100,29.95,0.1,SSW,18.4,32.2,N/A,Fog-Snow,Light Snow,200,2013-12-20 02:55:00
4:00 AM,14,14,100,,0,SSW,18.4,,,Snow,Light Snow,200,2013-12-20 03:00:00
4:55 AM,14.0,14.0,100,29.98,0.1,SSW,16.1,29.9,N/A,Fog-Snow,Light Snow,210,2013-12-20 03:55:00
5:00 AM,14,14,100,,0,SSW,16.1,,,Snow,Light Snow,210,2013-12-20 04:00:00
6:00 AM,14,14,100,,0,SSW,12.7,,,Snow,Light Snow,210,2013-12-20 05:00:00
6:55 AM,14.0,14.0,100,30.04,0.1,SSW,10.4,26.5,N/A,Fog-Snow,Light Snow,210,2013-12-20 05:55:00
7:00 AM,14,14,100,,0,SSW,10.4,,,Snow,Light Snow,210,2013-12-20 06:00:00
7:55 AM,14.0,14.0,100,30.04,0.1,SSW,9.2,23.0,N/A,Fog-Snow,Light Snow,200,2013-12-20 06:55:00
8:00 AM,15,15,98,,0,SSW,9.2,,,Snow,Light Snow,200,2013-12-20 07:00:00
8:55 AM,14.0,14.0,100,30.09,0.1,SSW,12.7,26.5,N/A,Fog-Snow,Light Snow,210,2013-12-20 07:55:00
9:00 AM,15,15,98,,0,SSW,12.7,,,Snow,Light Snow,210,2013-12-20 08:00:00
9:55 AM,15.8,15.8,100,30.09,0.1,SSW,20.7,33.4,N/A,Fog-Snow,Light Snow,210,2013-12-20 08:55:00
10:00 AM,15,15,100,,0,SSW,20.7,,,Snow,Light Snow,210,2013-12-20 09:00:00
10:55 AM,15.8,15.8,100,30.12,0.1,SSW,26.5,-,N/A,Fog-Snow,Light Snow,210,2013-12-20 09:55:00
11:00 AM,15,15,100,,0,SSW,26.5,,,Snow,Light Snow,210,2013-12-20 10:00:00
11:55 AM,15.8,15.8,100,30.15,0.1,SSW,26.5,-,N/A,Fog-Snow,Light Snow,210,2013-12-20 10:55:00
12:00 PM,15,15,100,,0,SSW,26.5,,,Snow,Light Snow,210,2013-12-20 11:00:00
12:55 PM,15.8,15.8,100,30.15,0.1,SSW,27.6,41.4,N/A,Fog-Snow,Light Snow,210,2013-12-20 11:55:00
1:00 PM,16,16,99,,0,SSW,27.6,,,Snow,Light Snow,210,2013-12-20 12:00:00
1:55 PM,15.8,15.8,100,30.15,0.1,SSW,24.2,-,N/A,Fog,Light Freezing Fog,210,2013-12-20 12:55:00
2:00 PM,17,17,97,,0,SSW,24.2,,,Fog,Heavy Fog,210,2013-12-20 13:00:00
2:55 PM,15.8,15.8,100,30.18,0.2,SSW,8.1,-,N/A,Fog,Light Freezing Fog,210,2013-12-20 13:55:00
3:00 PM,17,17,97,,0,SSW,8.1,,,Fog,Heavy Fog,210,2013-12-20 14:00:00
3:55 PM,17.6,17.6,100,30.21,0.3,SW,12.7,-,N/A,Fog,Light Freezing Fog,220,2013-12-20 14:55:00
4:00 PM,17,17,99,,0,SW,12.7,,,Fog,Heavy Fog,220,2013-12-20 15:00:00
4:55 PM,17.6,17.6,100,30.27,0.5,SW,10.4,-,N/A,Fog,Light Freezing Fog,230,2013-12-20 15:55:00
5:00 PM,17,17,99,,0,SW,10.4,,,Fog,Heavy Fog,230,2013-12-20 16:00:00
5:55 PM,15.8,15.8,100,30.27,0.5,SW,6.9,-,N/A,Fog,Light Freezing Fog,230,2013-12-20 16:55:00
6:00 PM,17,17,97,,0,SW,6.9,,,Fog,Heavy Fog,230,2013-12-20 17:00:00
6:55 PM,15.8,15.8,100,30.30,6.2,SW,8.1,-,N/A,,Mostly Cloudy,230,2013-12-20 17:55:00
7:00 PM,17,16,94,,6,SW,8.1,,,Fog,Light Fog,230,2013-12-20 18:00:00
7:55 PM,15.8,15.8,100,30.33,6.2,SW,8.1,-,N/A,,Mostly Cloudy,220,2013-12-20 18:55:00
8:00 PM,16,16,98,,6,SW,8.1,,,,Mostly Cloudy,220,2013-12-20 19:00:00
8:55 PM,17.6,14.0,86,30.33,6.2,SW,5.8,-,N/A,,Mostly Cloudy,220,2013-12-20 19:55:00
9:00 PM,17,14,82,,6,SW,5.8,,,,Mostly Cloudy,220,2013-12-20 20:00:00
9:55 PM,17.6,14.0,86,30.36,6.2,SW,9.2,-,N/A,,Scattered Clouds,220,2013-12-20 20:55:00
10:00 PM,17,13,80,,6,SW,9.2,,,,Partly Cloudy,220,2013-12-20 21:00:00
10:55 PM,17.6,14.0,86,30.36,6.2,WSW,9.2,-,N/A,,Scattered Clouds,240,2013-12-20 21:55:00
11:00 PM,17,15,85,,6,WSW,9.2,,,,Partly Cloudy,240,2013-12-20 22:00:00
11:55 PM,17.6,15.8,93,30.39,6.2,SW,5.8,-,N/A,,Mostly Cloudy,220,2013-12-20 22:55:00